createdAt,value
2018-04-24T00:00:55.521Z,10.40
2018-04-24T00:03:23.206Z,10.10
2018-04-24T00:05:50.905Z,9.90
2018-04-24T00:08:18.588Z,10.40
2018-04-24T00:10:47.019Z,10.20
2018-04-24T00:13:14.704Z,10.20
2018-04-24T00:15:42.383Z,10.10
2018-04-24T00:18:10.105Z,10.40
2018-04-24T00:20:37.751Z,10.30
2018-04-24T00:23:05.400Z,10.20
2018-04-24T00:25:33.102Z,10.20
2018-04-24T00:28:00.692Z,10.20
2018-04-24T00:30:29.096Z,10.10
2018-04-24T00:32:57.558Z,10.00
2018-04-24T00:35:26.988Z,10.10
2018-04-24T00:37:54.566Z,10.10
2018-04-24T00:40:22.238Z,9.90
2018-04-24T00:42:50.664Z,10.10
2018-04-24T00:45:18.348Z,10.10
2018-04-24T00:47:46.014Z,10.00
2018-04-24T00:50:13.678Z,10.10
2018-04-24T00:52:41.328Z,9.90
2018-04-24T00:55:09.028Z,10.10
2018-04-24T00:57:37.481Z,10.00
2018-04-24T01:00:05.227Z,10.10
2018-04-24T01:02:32.911Z,10.40
2018-04-24T01:05:02.345Z,10.00
2018-04-24T01:07:30.776Z,10.10
2018-04-24T01:09:58.427Z,9.90
2018-04-24T01:12:26.057Z,10.00
2018-04-24T01:14:53.739Z,10.00
2018-04-24T01:17:21.364Z,10.10
2018-04-24T01:19:49.848Z,10.10
2018-04-24T01:22:17.558Z,10.00
2018-04-24T01:24:45.214Z,10.10
2018-04-24T01:27:16.146Z,10.00
2018-04-24T01:29:43.736Z,10.30
2018-04-24T01:32:12.210Z,10.40
2018-04-24T01:34:39.910Z,10.40
2018-04-24T01:37:07.636Z,10.40
2018-04-24T01:39:35.348Z,10.40
2018-04-24T01:42:03.044Z,10.50
2018-04-24T01:44:30.731Z,10.70
2018-04-24T01:46:59.288Z,10.50
2018-04-24T01:49:26.964Z,10.60
2018-04-24T01:51:54.962Z,10.30
2018-04-24T01:54:22.698Z,10.50
2018-04-24T01:56:50.297Z,10.30
2018-04-24T01:59:17.952Z,10.30
2018-04-24T02:01:46.522Z,10.30
2018-04-24T02:04:14.289Z,10.30
2018-04-24T02:06:41.953Z,10.20
2018-04-24T02:09:09.643Z,10.40
2018-04-24T02:11:37.492Z,10.40
2018-04-24T02:14:06.151Z,10.40
2018-04-24T02:16:33.774Z,10.40
2018-04-24T02:19:01.452Z,10.20
2018-04-24T02:21:29.078Z,10.40
2018-04-24T02:23:56.833Z,10.40
2018-04-24T02:26:24.535Z,10.70
2018-04-24T02:28:52.266Z,10.40
2018-04-24T02:31:19.920Z,10.60
2018-04-24T02:33:47.578Z,10.40
2018-04-24T02:36:15.285Z,10.70
2018-04-24T02:38:43.700Z,10.30
2018-04-24T02:41:11.435Z,10.30
2018-04-24T02:43:39.093Z,10.30
2018-04-24T02:46:07.524Z,10.70
2018-04-24T02:48:35.264Z,10.30
2018-04-24T02:51:02.936Z,10.40
2018-04-24T02:53:30.560Z,10.50
2018-04-24T02:55:59.082Z,10.70
2018-04-24T02:58:26.750Z,10.80
2018-04-24T03:00:54.409Z,10.30
2018-04-24T03:03:22.139Z,10.50
2018-04-24T03:05:49.806Z,10.40
2018-04-24T03:08:17.511Z,10.40
2018-04-24T03:10:45.162Z,10.50
2018-04-24T03:13:12.995Z,10.30
2018-04-24T03:15:40.620Z,10.50
2018-04-24T03:18:08.398Z,10.50
2018-04-24T03:20:36.142Z,10.80
2018-04-24T03:23:03.823Z,10.80
2018-04-24T03:25:31.504Z,10.70
2018-04-24T03:27:59.152Z,10.70
2018-04-24T03:30:26.820Z,10.70
2018-04-24T03:32:54.457Z,10.60
2018-04-24T03:35:22.121Z,10.60
2018-04-24T03:37:49.827Z,10.80
2018-04-24T03:40:18.283Z,10.80
2018-04-24T03:42:45.907Z,10.90
2018-04-24T03:45:14.301Z,10.90
2018-04-24T03:47:41.997Z,11.10
2018-04-24T03:50:09.641Z,10.80
2018-04-24T03:52:37.232Z,11.00
2018-04-24T03:55:04.943Z,10.70
2018-04-24T03:57:32.605Z,10.80
2018-04-24T04:00:00.231Z,11.10
2018-04-24T04:02:28.661Z,11.00
2018-04-24T04:04:56.283Z,11.10
2018-04-24T04:07:24.013Z,10.80
2018-04-24T04:09:51.615Z,11.10
2018-04-24T04:12:19.291Z,11.00
2018-04-24T04:14:47.691Z,11.00
2018-04-24T04:20:26.789Z,11.10
2018-04-24T04:23:06.169Z,10.90
2018-04-24T04:25:33.738Z,10.90
2018-04-24T04:28:01.413Z,11.00
2018-04-24T04:30:29.079Z,10.80
2018-04-24T04:32:56.805Z,10.70
2018-04-24T04:35:25.263Z,10.80
2018-04-24T04:37:53.836Z,11.20
2018-04-24T04:40:21.477Z,11.30
2018-04-24T04:42:49.599Z,11.20
2018-04-24T04:47:49.745Z,11.40
2018-04-24T04:50:17.296Z,11.40
2018-04-24T04:52:45.796Z,11.10
2018-04-24T04:55:14.260Z,11.20
2018-04-24T04:57:41.901Z,11.30
2018-04-24T05:00:12.884Z,11.30
2018-04-24T05:02:41.373Z,11.10
2018-04-24T05:05:09.024Z,11.10
2018-04-24T05:07:37.512Z,11.10
2018-04-24T05:10:05.908Z,11.00
2018-04-24T05:12:34.468Z,11.00
2018-04-24T05:15:03.391Z,10.90
2018-04-24T05:17:31.119Z,11.40
2018-04-24T05:19:58.854Z,11.30
2018-04-24T05:22:27.406Z,11.30
2018-04-24T05:24:55.020Z,11.50
2018-04-24T05:27:22.667Z,11.30
2018-04-24T05:29:50.325Z,11.40
2018-04-24T05:32:18.038Z,11.50
2018-04-24T05:34:45.712Z,11.70
2018-04-24T05:37:13.357Z,11.70
2018-04-24T05:39:41.101Z,11.60
2018-04-24T05:42:09.513Z,11.40
2018-04-24T05:44:37.320Z,11.20
2018-04-24T05:47:04.926Z,11.40
2018-04-24T05:49:33.452Z,11.70
2018-04-24T05:52:01.198Z,11.60
2018-04-24T05:54:28.916Z,11.80
2018-04-24T05:56:57.353Z,11.80
2018-04-24T05:59:25.039Z,11.90
2018-04-24T06:01:52.670Z,11.70
2018-04-24T06:04:20.271Z,11.70
2018-04-24T06:06:47.959Z,11.90
2018-04-24T06:09:15.535Z,11.70
2018-04-24T06:11:43.222Z,11.60
2018-04-24T06:14:10.885Z,11.70
2018-04-24T06:16:39.717Z,11.70
2018-04-24T06:19:07.351Z,11.90
2018-04-24T06:21:35.075Z,11.80
2018-04-24T06:24:02.785Z,11.90
2018-04-24T06:26:30.443Z,11.80
2018-04-24T06:28:58.139Z,11.80
2018-04-24T06:31:26.591Z,11.90
2018-04-24T06:33:55.019Z,11.90
2018-04-24T06:36:22.676Z,11.70
2018-04-24T06:38:50.374Z,11.80
2018-04-24T06:41:18.048Z,11.70
2018-04-24T06:43:45.721Z,11.80
2018-04-24T06:46:14.114Z,12.00
2018-04-24T06:48:42.342Z,11.90
2018-04-24T06:51:10.756Z,11.70
2018-04-24T06:53:38.390Z,12.10
2018-04-24T06:56:05.989Z,11.90
2018-04-24T06:58:33.745Z,11.70
2018-04-24T07:01:01.400Z,11.70
2018-04-24T07:03:29.047Z,12.10
2018-04-24T07:05:56.682Z,12.00
2018-04-24T07:08:24.286Z,12.10
2018-04-24T07:10:51.946Z,11.90
2018-04-24T07:13:19.689Z,12.20
2018-04-24T07:15:47.391Z,12.30
2018-04-24T07:18:15.054Z,12.10
2018-04-24T07:20:42.682Z,12.10
2018-04-24T07:23:10.372Z,12.20
2018-04-24T07:25:38.014Z,12.10
2018-04-24T07:28:05.666Z,12.20
2018-04-24T07:30:33.417Z,12.00
2018-04-24T07:33:01.173Z,12.30
2018-04-24T07:35:32.368Z,12.20
2018-04-24T07:38:00.020Z,12.10
2018-04-24T07:40:27.688Z,12.20
2018-04-24T07:42:55.450Z,12.10
2018-04-24T07:45:23.113Z,12.00
2018-04-24T07:47:50.768Z,12.00
2018-04-24T07:50:18.590Z,11.90
2018-04-24T07:52:46.151Z,12.00
2018-04-24T07:55:13.807Z,11.90
2018-04-24T07:57:41.587Z,12.00
2018-04-24T08:00:09.335Z,12.00
2018-04-24T08:02:37.021Z,12.00
2018-04-24T08:05:04.608Z,11.70
2018-04-24T08:07:32.343Z,11.80
2018-04-24T08:10:00.735Z,12.10
2018-04-24T08:12:29.785Z,12.00
2018-04-24T08:14:58.247Z,12.40
2018-04-24T08:17:26.647Z,12.70
2018-04-24T08:19:54.301Z,12.40
2018-04-24T08:22:22.755Z,12.70
2018-04-24T08:24:50.391Z,12.40
2018-04-24T08:27:18.074Z,12.70
2018-04-24T08:29:45.731Z,13.00
2018-04-24T08:32:13.378Z,13.10
2018-04-24T08:34:41.075Z,13.00
2018-04-24T08:37:08.721Z,13.10
2018-04-24T08:39:36.368Z,13.40
2018-04-24T08:42:03.946Z,13.10
2018-04-24T08:44:31.614Z,13.10
2018-04-24T08:46:59.227Z,13.20
2018-04-24T08:49:26.908Z,12.80
2018-04-24T08:51:54.493Z,13.40
2018-04-24T08:54:22.133Z,13.00
2018-04-24T08:56:49.812Z,13.10
2018-04-24T08:59:18.064Z,13.10
2018-04-24T09:01:48.748Z,13.20
2018-04-24T09:04:16.451Z,13.00
2018-04-24T09:06:44.110Z,13.10
2018-04-24T09:09:12.357Z,13.40
2018-04-24T09:11:40.063Z,13.00
2018-04-24T09:14:07.772Z,13.10
2018-04-24T09:16:41.518Z,13.40
2018-04-24T09:19:09.256Z,13.30
2018-04-24T09:21:37.660Z,13.60
2018-04-24T09:24:09.049Z,13.30
2018-04-24T09:26:36.748Z,13.50
2018-04-24T09:29:04.427Z,13.70
2018-04-24T09:31:37.576Z,14.00
2018-04-24T09:34:05.198Z,14.10
2018-04-24T09:36:34.010Z,14.10
2018-04-24T09:39:01.676Z,14.30
2018-04-24T09:41:30.040Z,14.40
2018-04-24T09:43:57.679Z,14.20
2018-04-24T09:46:25.966Z,14.50
2018-04-24T09:48:53.681Z,14.50
2018-04-24T09:51:21.393Z,14.50
2018-04-24T09:53:48.999Z,14.50
2018-04-24T09:56:17.949Z,14.40
2018-04-24T09:58:45.660Z,14.30
2018-04-24T10:01:13.349Z,14.40
2018-04-24T10:03:41.095Z,14.50
2018-04-24T10:06:08.792Z,14.50
2018-04-24T10:08:44.097Z,14.60
2018-04-24T10:11:12.568Z,14.70
2018-04-24T10:13:40.412Z,14.50
2018-04-24T10:16:08.014Z,14.70
2018-04-24T10:18:35.773Z,14.80
2018-04-24T10:21:04.189Z,14.60
2018-04-24T10:23:31.831Z,14.60
2018-04-24T10:25:59.455Z,14.50
2018-04-24T10:28:27.128Z,14.50
2018-04-24T10:30:54.889Z,14.30
2018-04-24T10:33:27.215Z,14.30
2018-04-24T10:35:55.729Z,14.80
2018-04-24T10:38:23.365Z,14.50
2018-04-24T10:40:51.773Z,15.10
2018-04-24T10:43:19.426Z,15.10
2018-04-24T10:45:48.218Z,14.90
2018-04-24T10:48:15.838Z,15.20
2018-04-24T10:50:44.943Z,15.20
2018-04-24T10:53:12.527Z,15.20
2018-04-24T10:55:40.091Z,15.20
2018-04-24T10:58:08.466Z,15.00
2018-04-24T11:00:36.076Z,15.00
2018-04-24T11:03:03.658Z,15.20
2018-04-24T11:05:32.073Z,15.20
2018-04-24T11:07:59.655Z,15.40
2018-04-24T11:10:27.294Z,15.30
2018-04-24T11:12:54.936Z,15.20
2018-04-24T11:15:22.508Z,15.30
2018-04-24T11:17:50.049Z,15.50
2018-04-24T11:20:17.674Z,15.40
2018-04-24T11:22:45.330Z,15.40
2018-04-24T11:25:12.880Z,15.50
2018-04-24T11:27:40.802Z,15.70
2018-04-24T11:30:08.431Z,15.70
2018-04-24T11:32:35.985Z,15.80
2018-04-24T11:35:03.589Z,16.00
2018-04-24T11:37:31.990Z,16.30
2018-04-24T11:40:00.380Z,16.40
2018-04-24T11:42:27.936Z,16.40
2018-04-24T11:44:56.489Z,16.40
2018-04-24T11:47:24.056Z,16.40
2018-04-24T11:49:53.105Z,16.00
2018-04-24T11:52:20.670Z,16.10
2018-04-24T11:54:48.285Z,15.90
2018-04-24T11:57:16.591Z,16.10
2018-04-24T11:59:44.199Z,16.10
2018-04-24T12:02:11.773Z,16.20
2018-04-24T12:04:39.372Z,16.20
2018-04-24T12:07:06.963Z,16.30
2018-04-24T12:09:34.535Z,16.40
2018-04-24T12:12:02.911Z,16.50
2018-04-24T12:14:30.575Z,16.40
2018-04-24T12:16:58.123Z,16.50
2018-04-24T12:19:25.695Z,16.20
2018-04-24T12:21:53.305Z,16.30
2018-04-24T12:24:20.932Z,16.30
2018-04-24T12:26:48.485Z,16.40
2018-04-24T12:29:16.066Z,16.50
2018-04-24T12:31:44.445Z,16.60
2018-04-24T12:34:12.186Z,16.60
2018-04-24T12:36:39.776Z,16.50
2018-04-24T12:39:07.368Z,16.30
2018-04-24T12:41:35.695Z,16.20
2018-04-24T12:44:03.324Z,16.10
2018-04-24T12:46:30.958Z,16.40
2018-04-24T12:48:58.540Z,16.60
2018-04-24T12:51:26.128Z,16.60
2018-04-24T12:53:53.693Z,16.40
2018-04-24T12:56:22.479Z,16.40
2018-04-24T12:58:50.066Z,16.20
2018-04-24T13:01:17.653Z,16.30
2018-04-24T13:03:46.217Z,16.00
2018-04-24T13:06:13.827Z,15.80
2018-04-24T13:08:41.396Z,16.00
2018-04-24T13:11:08.954Z,16.10
2018-04-24T13:13:36.542Z,16.20
2018-04-24T13:16:04.187Z,16.30
2018-04-24T13:18:31.732Z,16.40
2018-04-24T13:20:59.312Z,16.60
2018-04-24T13:23:26.840Z,16.80
2018-04-24T13:25:54.441Z,16.80
2018-04-24T13:28:22.009Z,16.60
2018-04-24T13:30:49.550Z,16.50
2018-04-24T13:33:17.176Z,16.30
2018-04-24T13:35:44.780Z,16.20
2018-04-24T13:38:12.326Z,16.20
2018-04-24T13:40:44.129Z,16.40
2018-04-24T13:43:11.809Z,16.30
2018-04-24T13:45:39.414Z,16.50
2018-04-24T13:48:07.044Z,16.70
2018-04-24T13:50:34.623Z,16.60
2018-04-24T13:53:03.014Z,16.60
2018-04-24T13:55:30.785Z,16.50
2018-04-24T13:57:58.358Z,16.80
2018-04-24T14:00:25.953Z,16.90
2018-04-24T14:02:55.224Z,17.00
2018-04-24T14:05:22.805Z,16.90
2018-04-24T14:07:50.443Z,16.90
2018-04-24T14:10:18.031Z,16.70
2018-04-24T14:12:45.637Z,16.60
2018-04-24T14:15:13.988Z,16.40
2018-04-24T14:17:41.541Z,16.40
2018-04-24T14:20:09.154Z,16.30
2018-04-24T14:22:36.775Z,16.20
2018-04-24T14:25:04.701Z,16.30
2018-04-24T14:27:32.253Z,16.60
2018-04-24T14:29:59.880Z,16.60
2018-04-24T14:32:27.506Z,16.70
2018-04-24T14:34:55.072Z,16.60
2018-04-24T14:37:22.707Z,16.30
2018-04-24T14:39:50.319Z,16.20
2018-04-24T14:42:22.667Z,16.10
2018-04-24T14:44:50.270Z,16.20
2018-04-24T14:47:17.899Z,16.20
2018-04-24T14:49:45.477Z,16.20
2018-04-24T14:52:13.125Z,16.30
2018-04-24T14:54:40.691Z,16.30
2018-04-24T14:57:08.349Z,16.30
2018-04-24T14:59:35.901Z,16.30
2018-04-24T15:02:03.503Z,16.40
2018-04-24T15:04:31.869Z,16.60
2018-04-24T15:06:59.499Z,16.80
2018-04-24T15:09:27.113Z,16.40
2018-04-24T15:11:54.716Z,16.20
2018-04-24T15:14:22.303Z,16.00
2018-04-24T15:16:49.900Z,16.20
2018-04-24T15:19:18.276Z,16.20
2018-04-24T15:21:45.873Z,16.10
2018-04-24T15:24:13.492Z,16.20
2018-04-24T15:26:41.978Z,16.40
2018-04-24T15:29:10.204Z,16.60
2018-04-24T15:31:40.330Z,16.60
2018-04-24T15:34:07.964Z,16.60
2018-04-24T15:36:35.608Z,16.40
2018-04-24T15:39:03.973Z,16.30
2018-04-24T15:41:32.486Z,16.20
2018-04-24T15:44:00.242Z,16.20
2018-04-24T15:46:28.813Z,16.40
2018-04-24T15:48:56.427Z,16.30
2018-04-24T15:51:25.553Z,16.60
2018-04-24T15:53:53.859Z,16.80
2018-04-24T15:56:22.217Z,16.70
2018-04-24T15:58:49.811Z,16.60
2018-04-24T16:01:18.195Z,16.50
2018-04-24T16:03:45.819Z,16.70
2018-04-24T16:06:13.510Z,16.50
2018-04-24T16:08:41.112Z,16.20
2018-04-24T16:11:08.732Z,16.30
2018-04-24T16:13:37.248Z,16.00
2018-04-24T16:16:05.587Z,16.10
2018-04-24T16:18:33.264Z,16.10
2018-04-24T16:21:01.598Z,16.00
2018-04-24T16:23:30.159Z,16.00
2018-04-24T16:25:57.736Z,16.10
2018-04-24T16:28:25.363Z,16.10
2018-04-24T16:30:54.554Z,15.70
2018-04-24T16:33:22.173Z,15.80
2018-04-24T16:35:49.818Z,15.70
2018-04-24T16:41:11.769Z,15.80
2018-04-24T16:43:40.159Z,16.00
2018-04-24T16:46:07.772Z,16.10
2018-04-24T16:48:36.356Z,16.00
2018-04-24T16:51:03.956Z,15.80
2018-04-24T16:53:31.556Z,15.60
2018-04-24T16:55:59.137Z,15.80
2018-04-24T16:58:26.770Z,15.70
2018-04-24T17:00:54.415Z,15.50
2018-04-24T17:03:25.415Z,15.50
2018-04-24T17:05:53.814Z,15.50
2018-04-24T17:08:21.421Z,15.60
2018-04-24T17:10:48.978Z,15.50
2018-04-24T17:13:16.579Z,15.40
2018-04-24T17:15:44.183Z,15.40
2018-04-24T17:18:11.734Z,15.30
2018-04-24T17:20:39.329Z,15.20
2018-04-24T17:23:06.898Z,15.10
2018-04-24T17:25:34.778Z,15.30
2018-04-24T17:28:02.290Z,15.10
2018-04-24T17:30:29.907Z,15.10
2018-04-24T17:32:58.302Z,14.90
2018-04-24T17:35:26.008Z,15.10
2018-04-24T17:37:53.524Z,15.10
2018-04-24T17:40:21.909Z,15.10
2018-04-24T17:42:50.260Z,14.90
2018-04-24T17:45:17.868Z,15.10
2018-04-24T17:47:46.052Z,15.00
2018-04-24T17:50:20.099Z,14.90
2018-04-24T17:52:47.745Z,14.70
2018-04-24T17:55:15.341Z,14.80
2018-04-24T17:57:43.000Z,14.60
2018-04-24T18:00:10.629Z,14.70
2018-04-24T18:02:38.176Z,14.80
2018-04-24T18:05:05.851Z,14.70
2018-04-24T18:07:33.449Z,14.90
2018-04-24T18:10:02.117Z,14.80
2018-04-24T18:12:29.872Z,14.80
2018-04-24T18:14:57.535Z,14.90
2018-04-24T18:17:25.141Z,14.70
2018-04-24T18:19:53.486Z,14.70
2018-04-24T18:22:21.098Z,14.80
2018-04-24T18:24:49.438Z,14.90
2018-04-24T18:27:18.673Z,15.00
2018-04-24T18:29:47.053Z,14.70
2018-04-24T18:32:15.390Z,14.40
2018-04-24T18:34:43.063Z,14.40
2018-04-24T18:37:10.704Z,14.40
2018-04-24T18:39:38.319Z,14.50
2018-04-24T18:42:05.936Z,14.50
2018-04-24T18:44:33.556Z,14.70
2018-04-24T18:47:01.157Z,14.70
2018-04-24T18:49:28.863Z,14.70
2018-04-24T18:51:56.447Z,14.80
2018-04-24T18:54:24.748Z,14.70
2018-04-24T18:56:52.308Z,14.50
2018-04-24T18:59:19.897Z,14.80
2018-04-24T19:01:47.523Z,14.60
2018-04-24T19:04:15.145Z,14.70
2018-04-24T19:06:42.741Z,14.90
2018-04-24T19:09:10.364Z,14.50
2018-04-24T19:11:38.001Z,14.60
2018-04-24T19:14:11.158Z,14.50
2018-04-24T19:16:38.809Z,14.50
2018-04-24T19:19:11.999Z,14.40
2018-04-24T19:21:39.571Z,14.40
2018-04-24T19:24:07.170Z,14.50
2018-04-24T19:26:34.792Z,14.30
2018-04-24T19:29:02.472Z,14.30
2018-04-24T19:31:35.755Z,14.50
2018-04-24T19:34:04.069Z,14.30
2018-04-24T19:36:31.671Z,14.50
2018-04-24T19:39:04.796Z,14.40
2018-04-24T19:41:37.911Z,14.40
2018-04-24T19:44:05.560Z,14.40
2018-04-24T19:46:33.204Z,14.20
2018-04-24T19:49:06.403Z,14.20
2018-04-24T19:51:33.948Z,14.10
2018-04-24T19:54:02.315Z,13.90
2018-04-24T19:56:29.918Z,14.20
2018-04-24T19:58:57.527Z,14.10
2018-04-24T20:01:25.155Z,14.10
2018-04-24T20:03:53.034Z,14.00
2018-04-24T20:06:20.733Z,13.80
2018-04-24T20:08:48.286Z,13.70
2018-04-24T20:11:15.873Z,13.80
2018-04-24T20:13:44.249Z,13.80
2018-04-24T20:16:12.653Z,13.80
2018-04-24T20:18:40.286Z,13.80
2018-04-24T20:21:09.060Z,13.80
2018-04-24T20:23:36.705Z,13.70
2018-04-24T20:26:04.311Z,13.60
2018-04-24T20:28:31.943Z,13.80
2018-04-24T20:30:59.573Z,13.70
2018-04-24T20:33:27.158Z,13.60
2018-04-24T20:35:55.537Z,13.80
2018-04-24T20:38:23.117Z,13.70
2018-04-24T20:40:50.746Z,13.70
2018-04-24T20:43:19.881Z,13.50
2018-04-24T20:45:47.508Z,13.60
2018-04-24T20:48:15.097Z,13.70
2018-04-24T20:50:42.673Z,13.70
2018-04-24T20:53:10.410Z,13.70
2018-04-24T20:55:37.920Z,13.60
2018-04-24T20:58:05.521Z,13.80
2018-04-24T21:00:33.129Z,13.50
2018-04-24T21:03:01.519Z,13.50
2018-04-24T21:05:29.175Z,13.70
2018-04-24T21:07:57.588Z,13.40
2018-04-24T21:10:25.160Z,13.60
2018-04-24T21:12:52.767Z,13.20
2018-04-24T21:15:20.382Z,13.30
2018-04-24T21:17:47.982Z,13.40
2018-04-24T21:20:15.569Z,13.50
2018-04-24T21:22:43.914Z,13.50
2018-04-24T21:25:11.551Z,13.70
2018-04-24T21:27:39.966Z,13.40
2018-04-24T21:30:07.602Z,13.50
2018-04-24T21:32:35.169Z,13.40
2018-04-24T21:35:02.840Z,13.60
2018-04-24T21:37:30.482Z,13.50
2018-04-24T21:39:58.098Z,13.70
2018-04-24T21:42:25.758Z,13.80
2018-04-24T21:44:54.147Z,13.60
2018-04-24T21:47:21.758Z,13.60
2018-04-24T21:49:56.413Z,13.20
2018-04-24T21:52:24.037Z,13.40
2018-04-24T21:54:51.661Z,13.50
2018-04-24T21:57:19.255Z,13.70
2018-04-24T21:59:46.929Z,13.60
2018-04-24T22:02:14.548Z,13.60
2018-04-24T22:04:42.165Z,13.70
2018-04-24T22:07:09.748Z,13.60
2018-04-24T22:09:37.394Z,13.50
2018-04-24T22:12:04.944Z,13.70
2018-04-24T22:14:32.479Z,13.80
2018-04-24T22:17:00.844Z,13.80
2018-04-24T22:19:29.235Z,13.90
2018-04-24T22:21:56.805Z,14.10
2018-04-24T22:24:24.385Z,13.80
2018-04-24T22:26:51.925Z,13.80
2018-04-24T22:29:19.527Z,13.50
2018-04-24T22:31:47.141Z,13.50
2018-04-24T22:34:15.516Z,13.60
2018-04-24T22:36:44.077Z,13.60
2018-04-24T22:39:11.679Z,13.70
2018-04-24T22:41:39.235Z,13.60
2018-04-24T22:44:06.809Z,13.60
2018-04-24T22:46:34.342Z,13.50
2018-04-24T22:49:02.721Z,13.40
2018-04-24T22:51:30.333Z,13.60
2018-04-24T22:53:58.022Z,13.40
2018-04-24T22:56:27.256Z,13.80
2018-04-24T22:58:55.615Z,13.40
2018-04-24T23:01:23.966Z,13.40
2018-04-24T23:03:51.596Z,13.60
2018-04-24T23:06:19.214Z,13.40
2018-04-24T23:08:47.816Z,13.60
2018-04-24T23:11:27.247Z,13.50
2018-04-24T23:14:06.705Z,13.60
2018-04-24T23:16:46.459Z,13.70
2018-04-24T23:19:25.880Z,13.70
2018-04-24T23:21:52.972Z,13.70
2018-04-24T23:24:21.331Z,13.60
2018-04-24T23:26:48.937Z,13.50
2018-04-24T23:29:17.935Z,13.70
2018-04-24T23:31:45.692Z,13.70
2018-04-24T23:34:13.362Z,13.50
2018-04-24T23:36:40.912Z,13.50
2018-04-24T23:39:09.311Z,13.70
2018-04-24T23:41:37.066Z,13.40
2018-04-24T23:44:04.736Z,13.60
2018-04-24T23:46:32.391Z,13.70
2018-04-24T23:48:59.963Z,13.60
2018-04-24T23:51:27.580Z,13.70
2018-04-24T23:53:55.222Z,13.50
2018-04-24T23:56:22.842Z,13.50
2018-04-24T23:58:50.502Z,13.70
